Time;durP1;ratioP1;P1;durP2;ratioP2;P2;SDS_P1;SDS_P2;PMS_P1;PMS_P2;Temp;Humidity;BMP_temperature;BMP_pressure;BME280_temperature;BME280_humidity;BME280_pressure;Samples;Min_cycle;Max_cycle;Signal;HPM_P1;HPM_P2
2021/08/26 00:01:02;;;;;;;35.90;19.10;;;7.30;99.90;;;;;;5033554;28;20424;-77
2021/08/26 00:06:19;;;;;;;34.97;17.80;;;7.30;99.90;;;;;;5051130;28;20036;-77
2021/08/26 00:08:47;;;;;;;31.25;16.45;;;7.20;99.90;;;;;;5052398;28;20029;-76
2021/08/26 00:11:13;;;;;;;34.20;15.60;;;7.30;99.90;;;;;;5062947;28;20040;-76
2021/08/26 00:13:42;;;;;;;32.03;15.82;;;7.30;99.90;;;;;;5059412;28;20029;-77
2021/08/26 00:16:08;;;;;;;27.90;15.70;;;7.30;99.90;;;;;;5051067;28;20037;-77
2021/08/26 00:18:33;;;;;;;24.95;15.38;;;7.30;99.90;;;;;;5066099;27;20481;-77
2021/08/26 00:21:00;;;;;;;25.85;15.07;;;7.20;99.90;;;;;;5071060;28;20031;-77
2021/08/26 00:23:26;;;;;;;26.00;13.98;;;7.20;99.90;;;;;;5047946;28;20037;-76
2021/08/26 00:25:51;;;;;;;22.00;13.45;;;7.20;99.90;;;;;;5071064;28;20025;-77
2021/08/26 00:28:18;;;;;;;24.10;14.95;;;7.20;99.90;;;;;;5068397;28;20393;-77
2021/08/26 00:30:44;;;;;;;25.73;14.75;;;7.20;99.90;;;;;;5052592;28;20036;-77
2021/08/26 00:33:09;;;;;;;23.45;13.68;;;7.20;99.90;;;;;;5067269;28;20025;-77
2021/08/26 00:35:35;;;;;;;20.58;12.35;;;7.30;99.90;;;;;;5070795;28;20096;-77
2021/08/26 00:38:01;;;;;;;21.35;13.00;;;7.30;99.90;;;;;;5069743;28;20033;-77
2021/08/26 00:40:26;;;;;;;18.75;12.18;;;7.30;99.90;;;;;;5069129;28;20032;-77
2021/08/26 00:42:52;;;;;;;21.02;12.80;;;7.20;99.90;;;;;;5069604;28;20085;-76
2021/08/26 00:45:17;;;;;;;20.65;12.20;;;7.20;99.90;;;;;;5052699;28;20387;-76
2021/08/26 00:47:47;;;;;;;13.25;9.68;;;7.20;99.90;;;;;;5050660;28;20489;-77
2021/08/26 00:50:14;;;;;;;14.60;9.02;;;7.10;99.90;;;;;;5065474;28;20391;-77
2021/08/26 00:52:40;;;;;;;9.95;7.38;;;7.10;99.90;;;;;;5050938;28;20022;-76
2021/08/26 00:55:07;;;;;;;8.40;7.05;;;7.10;99.90;;;;;;5050787;28;20025;-77
2021/08/26 00:57:37;;;;;;;11.75;8.20;;;7.10;99.90;;;;;;5062253;28;20043;-77
2021/08/26 01:00:10;;;;;;;14.18;8.55;;;7.10;99.90;;;;;;5049604;28;20033;-77
2021/08/26 01:03:03;;;;;;;12.48;8.85;;;7.20;99.90;;;;;;5052553;28;20040;-77
2021/08/26 01:05:48;;;;;;;12.35;9.48;;;7.20;99.90;;;;;;5038923;28;20059;-76
2021/08/26 01:08:15;;;;;;;13.07;8.95;;;7.30;99.90;;;;;;5048876;27;20033;-76
2021/08/26 01:10:43;;;;;;;14.63;9.20;;;7.40;99.90;;;;;;5052337;28;20041;-76
2021/08/26 01:13:10;;;;;;;15.25;10.02;;;7.50;99.90;;;;;;5069028;28;20032;-76
2021/08/26 01:15:36;;;;;;;15.48;10.52;;;7.50;99.90;;;;;;5052311;28;20120;-76
2021/08/26 01:18:02;;;;;;;15.48;10.15;;;7.60;99.90;;;;;;5069704;27;20039;-76
2021/08/26 01:20:28;;;;;;;21.35;10.25;;;7.60;99.90;;;;;;5050841;28;20037;-77
2021/08/26 01:22:53;;;;;;;14.10;10.50;;;7.70;99.90;;;;;;5053199;28;20028;-77
2021/08/26 01:25:24;;;;;;;16.08;10.27;;;7.80;99.90;;;;;;5052186;28;20401;-77
2021/08/26 01:27:57;;;;;;;20.63;13.63;;;7.80;99.90;;;;;;5050458;28;20021;-76
2021/08/26 01:30:26;;;;;;;19.25;12.25;;;7.90;99.90;;;;;;5069040;28;20040;-77
2021/08/26 01:32:55;;;;;;;18.77;13.90;;;8.00;99.90;;;;;;5062826;28;20037;-77
2021/08/26 01:35:23;;;;;;;18.52;12.15;;;8.00;99.90;;;;;;5052611;28;20041;-77
2021/08/26 01:37:48;;;;;;;18.08;13.20;;;8.10;99.90;;;;;;5069153;28;20392;-77
2021/08/26 01:40:14;;;;;;;23.42;12.95;;;8.20;99.90;;;;;;5051993;28;20124;-77
2021/08/26 01:42:40;;;;;;;20.65;12.73;;;8.30;99.90;;;;;;5051856;28;20032;-77
2021/08/26 01:45:08;;;;;;;22.25;13.27;;;8.30;99.90;;;;;;5039220;28;20040;-77
2021/08/26 01:47:35;;;;;;;22.58;14.68;;;8.40;99.90;;;;;;5067676;28;20119;-77
2021/08/26 01:50:01;;;;;;;25.27;15.55;;;8.50;99.90;;;;;;5053381;28;20025;-77
2021/08/26 01:52:28;;;;;;;14.75;10.57;;;8.50;99.90;;;;;;5031746;28;20040;-76
2021/08/26 01:54:57;;;;;;;15.25;10.18;;;8.60;99.90;;;;;;5045505;28;20077;-77
2021/08/26 01:57:31;;;;;;;19.75;12.32;;;8.60;99.90;;;;;;5069438;28;20060;-77
2021/08/26 02:00:03;;;;;;;17.23;11.30;;;8.60;99.90;;;;;;5049760;28;20105;-77
2021/08/26 02:02:29;;;;;;;13.98;11.23;;;8.60;99.90;;;;;;5068879;28;20032;-77
2021/08/26 02:04:55;;;;;;;15.82;10.13;;;8.60;99.90;;;;;;5069312;28;20192;-77
2021/08/26 02:07:20;;;;;;;12.88;9.85;;;8.60;99.90;;;;;;5032888;28;20034;-77
2021/08/26 02:09:46;;;;;;;14.25;9.48;;;8.60;99.90;;;;;;5054348;28;20451;-77
2021/08/26 02:12:12;;;;;;;13.02;9.27;;;8.60;99.90;;;;;;5049570;28;20049;-77
2021/08/26 02:14:38;;;;;;;18.10;10.00;;;8.70;99.90;;;;;;5067333;28;20061;-77
2021/08/26 02:17:04;;;;;;;14.75;9.93;;;8.70;99.90;;;;;;5069204;27;20113;-77
2021/08/26 02:19:29;;;;;;;17.48;11.93;;;8.70;99.90;;;;;;5057629;28;20443;-77
2021/08/26 02:21:55;;;;;;;13.65;9.82;;;8.70;99.90;;;;;;5053993;28;20040;-77
2021/08/26 02:24:21;;;;;;;19.63;13.00;;;8.80;99.90;;;;;;5050012;28;20025;-77
2021/08/26 02:26:46;;;;;;;20.20;13.07;;;8.80;99.90;;;;;;5069190;28;20043;-77
2021/08/26 02:29:12;;;;;;;24.20;14.93;;;8.90;99.90;;;;;;5050113;28;20036;-77
2021/08/26 02:31:38;;;;;;;21.35;14.35;;;8.90;99.90;;;;;;5045031;28;20553;-76
2021/08/26 02:34:04;;;;;;;22.67;15.57;;;9.00;99.90;;;;;;5056516;28;20402;-77
2021/08/26 02:36:29;;;;;;;25.15;15.27;;;9.00;99.90;;;;;;5054375;28;20041;-77
2021/08/26 02:38:55;;;;;;;25.35;14.23;;;9.10;99.90;;;;;;5039904;28;20040;-77
2021/08/26 02:41:22;;;;;;;23.33;16.30;;;9.10;99.90;;;;;;5068969;28;20085;-76
2021/08/26 02:43:48;;;;;;;25.23;16.48;;;9.20;99.90;;;;;;5050773;28;20021;-76
2021/08/26 02:46:13;;;;;;;26.60;17.02;;;9.30;99.90;;;;;;5051841;28;20033;-77
2021/08/26 02:48:39;;;;;;;28.23;17.70;;;9.30;99.90;;;;;;5053229;28;20033;-76
2021/08/26 02:51:05;;;;;;;25.58;17.17;;;9.40;99.90;;;;;;5068988;28;20585;-77
2021/08/26 02:53:30;;;;;;;28.50;18.17;;;9.40;99.90;;;;;;5064208;28;20032;-77
2021/08/26 02:55:57;;;;;;;32.10;19.15;;;9.40;99.90;;;;;;5050492;28;20041;-77
2021/08/26 02:58:24;;;;;;;28.63;18.92;;;9.50;99.90;;;;;;5067352;28;20518;-77
2021/08/26 03:00:49;;;;;;;29.40;19.02;;;9.50;99.90;;;;;;5052707;28;20112;-77
2021/08/26 03:03:15;;;;;;;35.35;20.20;;;9.40;99.90;;;;;;5064699;28;20075;-77
2021/08/26 03:05:41;;;;;;;32.17;18.52;;;9.50;99.90;;;;;;5062833;28;20036;-77
2021/08/26 03:08:06;;;;;;;31.02;19.35;;;9.60;99.90;;;;;;5071472;28;20032;-77
2021/08/26 03:10:32;;;;;;;29.65;18.33;;;9.60;99.90;;;;;;5034194;28;20089;-76
2021/08/26 03:12:58;;;;;;;28.05;18.23;;;9.60;99.90;;;;;;5052147;28;20072;-77
2021/08/26 03:15:23;;;;;;;31.52;19.58;;;9.60;99.90;;;;;;5059919;28;20390;-76
2021/08/26 03:17:49;;;;;;;30.77;19.25;;;9.60;99.90;;;;;;5053063;27;20033;-76
2021/08/26 03:20:15;;;;;;;33.33;21.65;;;9.70;99.90;;;;;;5053371;28;20021;-77
2021/08/26 03:22:42;;;;;;;34.65;21.05;;;9.70;99.90;;;;;;5071355;28;20036;-76
2021/08/26 03:25:08;;;;;;;31.75;20.00;;;9.70;99.90;;;;;;5069216;28;20124;-76
2021/08/26 03:27:33;;;;;;;33.90;19.50;;;9.70;99.90;;;;;;5053969;28;20021;-76
2021/08/26 03:29:59;;;;;;;32.90;20.58;;;9.80;99.90;;;;;;5050050;28;20081;-76
2021/08/26 03:32:25;;;;;;;27.33;19.42;;;9.80;99.90;;;;;;5053855;28;20037;-77
2021/08/26 03:34:51;;;;;;;29.50;18.52;;;9.80;99.90;;;;;;5044019;28;20105;-76
2021/08/26 03:37:16;;;;;;;23.63;15.40;;;9.80;99.90;;;;;;5051939;28;20029;-76
2021/08/26 03:39:42;;;;;;;29.25;16.63;;;9.80;99.90;;;;;;5047249;28;20040;-76
2021/08/26 03:42:08;;;;;;;19.73;13.10;;;9.80;99.90;;;;;;5036177;28;20541;-77
2021/08/26 03:44:33;;;;;;;22.40;14.50;;;9.70;99.90;;;;;;5052729;28;20064;-76
2021/08/26 03:46:59;;;;;;;19.70;13.85;;;9.70;99.90;;;;;;5060036;28;20109;-76
2021/08/26 03:49:28;;;;;;;19.83;13.35;;;9.70;99.90;;;;;;5065172;28;20107;-76
2021/08/26 03:51:55;;;;;;;21.88;14.55;;;9.70;99.90;;;;;;5051555;28;20064;-76
2021/08/26 03:54:20;;;;;;;24.13;14.77;;;9.60;99.90;;;;;;5068192;28;20068;-76
2021/08/26 03:56:46;;;;;;;25.23;16.05;;;9.70;99.90;;;;;;5051633;28;20469;-77
2021/08/26 03:59:12;;;;;;;26.75;17.42;;;9.60;99.90;;;;;;5060480;28;20033;-76
2021/08/26 04:01:38;;;;;;;22.67;16.52;;;9.70;99.90;;;;;;5032534;28;20079;-76
2021/08/26 04:04:03;;;;;;;22.17;16.52;;;9.70;99.90;;;;;;5051559;28;20400;-77
2021/08/26 04:06:29;;;;;;;27.02;17.45;;;9.70;99.90;;;;;;5051327;28;20039;-77
2021/08/26 04:08:55;;;;;;;26.73;17.90;;;9.70;99.90;;;;;;5034451;28;20033;-77
2021/08/26 04:11:21;;;;;;;24.85;15.68;;;9.80;99.90;;;;;;5052950;28;20486;-77
2021/08/26 04:13:46;;;;;;;26.15;15.90;;;9.80;99.90;;;;;;5045031;28;20024;-77
2021/08/26 04:16:12;;;;;;;24.23;16.02;;;9.90;99.90;;;;;;5060218;28;20385;-76
2021/08/26 04:18:38;;;;;;;28.65;17.13;;;9.90;99.90;;;;;;5064965;28;20036;-76
2021/08/26 04:21:03;;;;;;;25.25;16.42;;;9.90;99.90;;;;;;5044944;28;20131;-77
2021/08/26 04:23:29;;;;;;;23.17;15.57;;;10.00;99.90;;;;;;5063191;28;20025;-76
2021/08/26 04:25:54;;;;;;;30.40;18.17;;;10.00;99.90;;;;;;5060451;28;20398;-77
2021/08/26 04:28:20;;;;;;;31.38;18.55;;;10.00;99.90;;;;;;5059852;28;20458;-77
2021/08/26 04:30:46;;;;;;;26.67;17.23;;;10.10;99.90;;;;;;5063406;28;20057;-77
2021/08/26 04:33:12;;;;;;;24.67;17.75;;;10.10;99.90;;;;;;5054213;28;20022;-77
2021/08/26 04:35:37;;;;;;;31.60;18.65;;;10.10;99.90;;;;;;5061926;28;20431;-77
2021/08/26 04:38:03;;;;;;;27.45;16.90;;;10.20;99.90;;;;;;5056083;28;20089;-76
2021/08/26 04:40:29;;;;;;;28.25;17.33;;;10.20;99.90;;;;;;5056019;28;20029;-76
2021/08/26 04:42:54;;;;;;;28.58;17.17;;;10.20;99.90;;;;;;5062322;28;20069;-76
2021/08/26 04:45:20;;;;;;;23.77;16.25;;;10.30;99.90;;;;;;5064970;28;20028;-76
2021/08/26 04:47:46;;;;;;;30.48;16.77;;;10.30;99.90;;;;;;5061416;28;20025;-76
2021/08/26 04:50:11;;;;;;;22.20;15.35;;;10.30;99.90;;;;;;5055906;28;20040;-76
2021/08/26 04:52:37;;;;;;;27.52;16.83;;;10.30;99.90;;;;;;5062746;28;20032;-76
2021/08/26 04:55:03;;;;;;;25.30;15.50;;;10.40;99.90;;;;;;5058496;28;20375;-77
2021/08/26 04:57:29;;;;;;;26.98;17.42;;;10.40;99.90;;;;;;5062330;28;20486;-76
2021/08/26 04:59:55;;;;;;;25.95;18.08;;;10.50;99.90;;;;;;5063456;28;20113;-77
2021/08/26 05:02:20;;;;;;;26.25;16.80;;;10.50;99.90;;;;;;5041620;28;20039;-77
2021/08/26 05:04:46;;;;;;;26.13;16.88;;;10.60;99.90;;;;;;5061810;28;20461;-76
2021/08/26 05:07:11;;;;;;;27.70;17.52;;;10.60;99.90;;;;;;5062966;28;20107;-76
2021/08/26 05:09:37;;;;;;;25.02;17.27;;;10.60;99.90;;;;;;5054002;28;20108;-77
2021/08/26 05:12:05;;;;;;;27.83;17.25;;;10.70;99.90;;;;;;5061536;28;20041;-77
2021/08/26 05:14:31;;;;;;;30.02;17.85;;;10.70;99.90;;;;;;5050375;28;20053;-76
2021/08/26 05:16:58;;;;;;;25.92;18.15;;;10.70;99.90;;;;;;5050437;28;20064;-76
2021/08/26 05:19:25;;;;;;;23.17;16.60;;;10.70;99.90;;;;;;5038116;28;20035;-77
2021/08/26 05:21:50;;;;;;;28.67;17.67;;;10.70;99.90;;;;;;5032235;28;20029;-77
2021/08/26 05:24:16;;;;;;;25.95;17.13;;;10.70;99.90;;;;;;5049612;28;20043;-77
2021/08/26 05:26:42;;;;;;;26.65;18.15;;;10.70;99.90;;;;;;5032283;28;20041;-77
2021/08/26 05:29:07;;;;;;;26.02;17.33;;;10.70;99.90;;;;;;5058458;28;20115;-76
2021/08/26 05:31:33;;;;;;;30.85;19.70;;;10.70;99.90;;;;;;5052175;28;20508;-76
2021/08/26 05:33:59;;;;;;;31.45;19.63;;;10.70;99.90;;;;;;5066735;28;20073;-76
2021/08/26 05:36:24;;;;;;;32.83;20.80;;;10.70;99.90;;;;;;5054977;28;20562;-76
2021/08/26 05:38:50;;;;;;;28.55;20.75;;;10.70;99.90;;;;;;5062850;28;20050;-76
2021/08/26 05:41:16;;;;;;;29.95;21.55;;;10.80;99.90;;;;;;5063182;28;20157;-76
2021/08/26 05:43:42;;;;;;;28.67;20.42;;;10.80;99.90;;;;;;5049619;28;20108;-76
2021/08/26 05:46:07;;;;;;;29.33;21.20;;;10.80;99.90;;;;;;5049647;28;20068;-76
2021/08/26 05:48:34;;;;;;;28.63;19.58;;;10.80;99.90;;;;;;5040411;28;20035;-77
2021/08/26 05:51:00;;;;;;;28.70;19.00;;;10.80;99.90;;;;;;5051814;28;20049;-77
2021/08/26 05:53:25;;;;;;;26.23;18.45;;;10.80;99.90;;;;;;5065289;28;20052;-77
2021/08/26 05:55:51;;;;;;;28.33;19.60;;;10.80;99.90;;;;;;5060451;28;20032;-77
2021/08/26 05:58:17;;;;;;;25.77;18.23;;;10.90;99.90;;;;;;5051141;28;20482;-77
2021/08/26 06:00:43;;;;;;;27.02;18.88;;;10.80;99.90;;;;;;5038691;28;20379;-77
2021/08/26 06:03:09;;;;;;;28.42;18.60;;;10.80;99.90;;;;;;5054250;28;20041;-77
2021/08/26 06:05:34;;;;;;;33.08;18.92;;;10.80;99.90;;;;;;5057806;28;20047;-77
2021/08/26 06:08:00;;;;;;;22.58;16.30;;;10.80;99.90;;;;;;5063241;28;20028;-77
2021/08/26 06:10:26;;;;;;;25.77;16.85;;;10.80;99.90;;;;;;5049296;28;20053;-77
2021/08/26 06:12:52;;;;;;;26.15;17.40;;;10.80;99.90;;;;;;5035921;28;20486;-77
2021/08/26 06:15:18;;;;;;;23.75;18.48;;;10.80;99.90;;;;;;5061078;28;20033;-77
2021/08/26 06:17:44;;;;;;;26.50;17.48;;;10.80;99.90;;;;;;5072386;28;20194;-77
2021/08/26 06:20:12;;;;;;;25.33;17.67;;;10.80;99.90;;;;;;5077182;28;20037;-77
2021/08/26 06:22:39;;;;;;;26.75;17.35;;;10.90;99.90;;;;;;5060054;28;20016;-77
2021/08/26 06:25:06;;;;;;;27.27;18.45;;;10.90;99.90;;;;;;5088155;28;20473;-77
2021/08/26 06:27:32;;;;;;;28.08;18.75;;;10.90;99.90;;;;;;5060488;28;20036;-77
2021/08/26 06:29:58;;;;;;;26.05;17.17;;;10.90;99.90;;;;;;5060161;28;20036;-77
2021/08/26 06:32:23;;;;;;;25.75;18.40;;;10.90;99.90;;;;;;5065266;28;20089;-77
2021/08/26 06:34:49;;;;;;;28.00;18.58;;;11.00;99.90;;;;;;5047202;27;20093;-77
2021/08/26 06:37:15;;;;;;;28.75;19.63;;;11.00;99.90;;;;;;5072492;27;20040;-77
2021/08/26 06:39:40;;;;;;;24.10;17.67;;;11.10;99.90;;;;;;5048308;27;20044;-77
2021/08/26 06:42:06;;;;;;;26.02;18.67;;;11.10;99.90;;;;;;5048898;28;20342;-77
2021/08/26 06:44:32;;;;;;;27.80;16.58;;;11.10;99.90;;;;;;5054372;28;20120;-77
2021/08/26 06:46:58;;;;;;;25.50;16.20;;;11.20;99.90;;;;;;5068329;28;20396;-77
2021/08/26 06:49:23;;;;;;;23.00;16.88;;;11.20;99.90;;;;;;5056317;28;20053;-76
2021/08/26 06:51:49;;;;;;;23.83;17.45;;;11.30;99.90;;;;;;5045151;28;20432;-77
2021/08/26 06:54:15;;;;;;;24.98;17.85;;;11.30;99.90;;;;;;5071844;28;20482;-77
2021/08/26 06:56:41;;;;;;;31.00;19.23;;;11.40;99.90;;;;;;5062076;28;20032;-77
2021/08/26 06:59:07;;;;;;;25.30;18.27;;;11.50;99.90;;;;;;5069149;28;20086;-78
2021/08/26 07:01:33;;;;;;;31.35;21.42;;;11.50;99.90;;;;;;5079252;28;20385;-77
2021/08/26 07:03:59;;;;;;;27.08;19.08;;;11.60;99.90;;;;;;5058656;28;20031;-77
2021/08/26 07:06:25;;;;;;;28.48;17.48;;;11.70;99.90;;;;;;5057270;28;20359;-78
2021/08/26 07:08:52;;;;;;;28.70;19.08;;;11.70;99.90;;;;;;5064934;28;20513;-77
2021/08/26 07:11:17;;;;;;;23.98;17.17;;;11.80;99.90;;;;;;5052095;28;20438;-78
2021/08/26 07:13:43;;;;;;;27.02;17.88;;;11.80;99.90;;;;;;5034999;28;20018;-77
2021/08/26 07:16:09;;;;;;;30.77;17.35;;;11.80;99.90;;;;;;5064761;28;20036;-77
2021/08/26 07:18:35;;;;;;;26.33;16.25;;;11.90;99.90;;;;;;5067791;27;20378;-85
2021/08/26 07:21:00;;;;;;;27.58;16.90;;;11.90;99.90;;;;;;5053897;28;20351;-85
2021/08/26 07:23:26;;;;;;;29.08;17.55;;;11.90;99.90;;;;;;5069589;28;20041;-85
2021/08/26 07:25:52;;;;;;;25.70;17.17;;;12.00;99.90;;;;;;5055616;27;20370;-85
2021/08/26 07:28:18;;;;;;;27.30;17.58;;;12.10;99.90;;;;;;5069746;28;20040;-84
2021/08/26 07:30:44;;;;;;;23.02;16.27;;;12.20;99.90;;;;;;5068004;27;20072;-85
2021/08/26 07:33:09;;;;;;;22.67;16.02;;;12.30;99.90;;;;;;5067973;28;20398;-84
2021/08/26 07:35:35;;;;;;;27.70;18.95;;;12.50;99.90;;;;;;5050168;28;20036;-85
2021/08/26 07:38:01;;;;;;;28.17;18.48;;;12.50;99.90;;;;;;5050733;28;20041;-86
2021/08/26 07:40:27;;;;;;;27.65;17.10;;;12.60;99.90;;;;;;5050791;28;20045;-82
2021/08/26 07:42:52;;;;;;;25.13;18.23;;;12.70;99.90;;;;;;5049016;28;20120;-84
2021/08/26 07:45:18;;;;;;;23.90;16.67;;;12.90;99.90;;;;;;5047757;28;20033;-84
2021/08/26 07:47:44;;;;;;;24.77;16.55;;;12.80;99.90;;;;;;5047932;28;20036;-81
2021/08/26 07:50:10;;;;;;;27.30;15.88;;;12.90;99.90;;;;;;5030025;28;20033;-83
2021/08/26 07:52:36;;;;;;;24.40;17.45;;;12.90;99.90;;;;;;5029984;28;20045;-83
2021/08/26 07:55:03;;;;;;;27.80;15.70;;;12.90;99.90;;;;;;5048543;28;20044;-83
2021/08/26 07:57:29;;;;;;;24.08;16.48;;;12.90;99.90;;;;;;5048544;28;20517;-83
2021/08/26 07:59:55;;;;;;;26.58;17.88;;;12.80;99.90;;;;;;5055598;28;20036;-83
2021/08/26 08:02:20;;;;;;;27.58;17.02;;;12.80;99.90;;;;;;5071507;28;20040;-81
2021/08/26 08:04:46;;;;;;;21.90;17.95;;;12.70;99.90;;;;;;5071495;28;20036;-84
2021/08/26 08:07:12;;;;;;;26.55;17.65;;;12.70;99.90;;;;;;5059538;28;20025;-82
2021/08/26 08:09:37;;;;;;;26.80;19.05;;;12.60;99.90;;;;;;5051425;28;20029;-83
2021/08/26 08:12:03;;;;;;;29.48;19.73;;;12.60;99.90;;;;;;5033475;28;20196;-84
2021/08/26 08:14:29;;;;;;;25.73;18.15;;;12.60;99.90;;;;;;5033492;28;20040;-83
2021/08/26 08:16:56;;;;;;;27.67;19.15;;;12.50;99.90;;;;;;5051347;27;20044;-83
2021/08/26 08:19:22;;;;;;;27.60;19.75;;;12.50;99.90;;;;;;5058461;28;20146;-83
2021/08/26 08:21:48;;;;;;;31.92;20.83;;;12.50;99.90;;;;;;5062597;28;20482;-83
2021/08/26 08:24:14;;;;;;;29.83;19.80;;;12.50;99.90;;;;;;5064084;28;20040;-82
2021/08/26 08:26:39;;;;;;;34.42;19.75;;;12.40;99.90;;;;;;5042944;28;20119;-86
2021/08/26 08:29:05;;;;;;;31.92;20.80;;;12.40;99.90;;;;;;5040405;28;20430;-84
2021/08/26 08:31:31;;;;;;;31.23;20.13;;;12.30;99.90;;;;;;5069314;28;20075;-83
2021/08/26 08:33:57;;;;;;;31.90;20.75;;;12.30;99.90;;;;;;5059518;28;20033;-74
2021/08/26 08:36:23;;;;;;;29.45;19.65;;;12.30;99.90;;;;;;5050919;28;20101;-73
2021/08/26 08:38:48;;;;;;;30.35;18.50;;;12.30;99.90;;;;;;5051021;28;20030;-74
2021/08/26 08:41:19;;;;;;;30.38;20.10;;;12.30;99.90;;;;;;5050863;28;20371;-73
2021/08/26 08:43:45;;;;;;;29.52;20.60;;;12.30;99.90;;;;;;5050942;28;20077;-73
2021/08/26 08:46:11;;;;;;;31.40;20.33;;;12.20;99.90;;;;;;5050880;28;20041;-73
2021/08/26 08:48:41;;;;;;;28.58;20.52;;;12.30;99.90;;;;;;5052514;28;20434;-72
2021/08/26 08:51:09;;;;;;;27.38;19.55;;;12.30;99.90;;;;;;5043279;28;20044;-72
2021/08/26 08:53:36;;;;;;;27.83;21.00;;;12.20;99.90;;;;;;5033282;28;20383;-72
2021/08/26 08:56:04;;;;;;;32.95;20.92;;;12.20;99.90;;;;;;5058082;28;20033;-72
2021/08/26 08:58:37;;;;;;;28.98;20.23;;;12.20;99.90;;;;;;5052471;28;20529;-72
2021/08/26 09:01:03;;;;;;;26.95;18.58;;;12.20;99.90;;;;;;5058528;28;20033;-72
2021/08/26 09:03:30;;;;;;;28.48;20.10;;;12.20;99.90;;;;;;5063240;28;20490;-73
2021/08/26 09:05:58;;;;;;;31.92;21.48;;;12.10;99.90;;;;;;5059443;28;20037;-72
2021/08/26 09:08:29;;;;;;;30.05;20.70;;;12.20;99.90;;;;;;5059886;28;20017;-72
2021/08/26 09:11:13;;;;;;;28.25;18.73;;;12.10;99.90;;;;;;5059227;28;20041;-72
2021/08/26 09:13:39;;;;;;;28.08;19.25;;;12.10;99.90;;;;;;5057203;28;20397;-72
2021/08/26 09:16:06;;;;;;;31.05;20.05;;;12.10;99.90;;;;;;5060743;28;20029;-74
2021/08/26 09:18:31;;;;;;;28.58;20.13;;;12.20;99.90;;;;;;5041177;28;20037;-72
2021/08/26 09:21:09;;;;;;;29.75;20.35;;;12.10;99.90;;;;;;5060699;28;20032;-72
2021/08/26 09:23:52;;;;;;;46.05;29.80;;;12.10;99.90;;;;;;5041082;28;20161;-72
2021/08/26 09:26:20;;;;;;;100.38;56.08;;;12.10;99.90;;;;;;5060726;28;20032;-72
2021/08/26 09:28:46;;;;;;;63.60;39.90;;;12.10;99.90;;;;;;5059554;28;20021;-72
2021/08/26 09:31:15;;;;;;;87.18;55.00;;;12.20;99.90;;;;;;5041218;28;20040;-72
2021/08/26 09:33:49;;;;;;;102.10;59.78;;;12.20;99.90;;;;;;5061774;28;20112;-72
2021/08/26 09:36:23;;;;;;;105.68;61.17;;;12.20;99.90;;;;;;5041695;28;20041;-72
2021/08/26 09:38:51;;;;;;;58.05;34.72;;;12.20;99.90;;;;;;5055299;28;20068;-72
2021/08/26 09:41:53;;;;;;;42.15;24.45;;;12.30;99.90;;;;;;5058046;28;20397;-72
2021/08/26 09:44:20;;;;;;;37.10;21.90;;;12.30;99.90;;;;;;5042586;28;20021;-72
2021/08/26 09:46:50;;;;;;;53.85;35.63;;;12.40;99.90;;;;;;5040649;28;20135;-78
2021/08/26 09:49:18;;;;;;;77.90;47.03;;;12.40;99.90;;;;;;5038014;28;20502;-78
2021/08/26 09:51:45;;;;;;;67.07;41.97;;;12.50;99.90;;;;;;5058574;28;20521;-77
2021/08/26 09:54:27;;;;;;;55.45;32.50;;;12.50;99.90;;;;;;5041867;28;20359;-78
2021/08/26 09:56:53;;;;;;;43.53;24.38;;;12.50;99.90;;;;;;5048727;28;20498;-77
2021/08/26 09:59:19;;;;;;;35.10;21.90;;;12.50;99.90;;;;;;5056084;28;20036;-78
2021/08/26 10:01:46;;;;;;;36.33;22.48;;;12.60;99.90;;;;;;5048230;28;20137;-77
2021/08/26 10:04:29;;;;;;;37.45;21.95;;;12.60;99.90;;;;;;5048160;28;20097;-78
2021/08/26 10:06:55;;;;;;;27.73;20.05;;;12.60;99.90;;;;;;5030847;28;20025;-78
2021/08/26 10:09:22;;;;;;;40.55;27.70;;;12.70;99.90;;;;;;5042659;28;20051;-78
2021/08/26 10:11:48;;;;;;;50.60;35.65;;;12.70;99.90;;;;;;5072287;28;20114;-78
2021/08/26 10:14:14;;;;;;;48.17;35.63;;;12.70;99.90;;;;;;5072436;28;20040;-78
2021/08/26 10:16:40;;;;;;;105.22;49.13;;;12.70;99.90;;;;;;5071704;27;20111;-78
2021/08/26 10:19:08;;;;;;;35.25;23.25;;;12.70;99.90;;;;;;5059815;28;20124;-78
2021/08/26 10:21:33;;;;;;;36.90;23.60;;;12.70;99.90;;;;;;5041973;28;20465;-77
2021/08/26 10:24:00;;;;;;;31.58;19.80;;;12.70;99.90;;;;;;5044212;28;20080;-78
2021/08/26 10:26:29;;;;;;;35.80;23.77;;;12.70;99.90;;;;;;5067679;28;20523;-77
2021/08/26 10:28:55;;;;;;;35.47;21.63;;;12.70;99.90;;;;;;5042560;28;20177;-78
2021/08/26 10:31:25;;;;;;;47.10;33.05;;;12.70;99.90;;;;;;5050894;28;20390;-78
2021/08/26 10:34:34;;;;;;;45.10;32.30;;;12.70;99.90;;;;;;5034122;28;20082;-78
2021/08/26 10:37:00;;;;;;;43.70;31.92;;;12.70;99.90;;;;;;5051290;28;20025;-78
2021/08/26 10:39:40;;;;;;;113.88;43.08;;;12.60;99.90;;;;;;5053237;28;20496;-78
2021/08/26 10:42:18;;;;;;;34.92;19.98;;;12.60;99.90;;;;;;5071945;28;20321;-78
2021/08/26 10:45:04;;;;;;;34.35;19.20;;;12.50;99.90;;;;;;5054736;28;20489;-78
2021/08/26 10:47:48;;;;;;;27.33;19.10;;;12.50;99.90;;;;;;5059738;28;20048;-78
2021/08/26 10:50:35;;;;;;;28.02;18.80;;;12.50;99.90;;;;;;5057012;28;20123;-77
2021/08/26 10:53:25;;;;;;;21.75;15.80;;;12.60;99.90;;;;;;5040198;27;20037;-77
2021/08/26 10:55:52;;;;;;;26.85;21.55;;;12.60;99.90;;;;;;5069479;28;20553;-77
2021/08/26 10:58:26;;;;;;;36.80;28.63;;;12.60;99.90;;;;;;5070004;28;20033;-78
2021/08/26 11:00:53;;;;;;;35.75;27.70;;;12.70;99.90;;;;;;5058028;28;20058;-78
2021/08/26 11:03:34;;;;;;;63.80;27.75;;;12.70;99.90;;;;;;5042739;28;20033;-77
2021/08/26 11:06:20;;;;;;;28.38;16.92;;;12.70;99.90;;;;;;5045035;28;20043;-78
2021/08/26 11:08:53;;;;;;;31.55;18.05;;;12.70;99.90;;;;;;5046238;28;20033;-78
2021/08/26 11:11:26;;;;;;;27.67;17.70;;;12.70;99.90;;;;;;5059324;28;20063;-78
2021/08/26 11:13:53;;;;;;;28.58;17.38;;;12.70;99.90;;;;;;5055610;27;20068;-79
2021/08/26 11:16:25;;;;;;;27.38;19.08;;;12.70;99.90;;;;;;5057984;27;20040;-78
2021/08/26 11:18:56;;;;;;;32.88;21.38;;;12.70;99.90;;;;;;5046093;27;20036;-78
2021/08/26 11:21:40;;;;;;;28.52;22.15;;;12.80;99.90;;;;;;5061936;28;20081;-78
2021/08/26 11:24:30;;;;;;;27.67;21.67;;;12.80;99.90;;;;;;5045859;28;20033;-78
2021/08/26 11:27:16;;;;;;;24.95;20.40;;;12.80;99.90;;;;;;5046335;28;20043;-78
2021/08/26 11:29:41;;;;;;;23.88;16.88;;;12.90;99.90;;;;;;5043759;28;20039;-78
2021/08/26 11:32:09;;;;;;;26.95;17.40;;;12.90;99.90;;;;;;5040035;28;20041;-78
2021/08/26 11:34:41;;;;;;;26.10;17.05;;;12.80;99.90;;;;;;5060390;28;20453;-78
2021/08/26 11:37:09;;;;;;;17.92;14.15;;;12.80;99.90;;;;;;5038388;27;20060;-78
2021/08/26 11:39:39;;;;;;;19.50;15.18;;;12.90;99.90;;;;;;5059236;28;20025;-78
2021/08/26 11:42:07;;;;;;;17.15;13.57;;;12.90;99.90;;;;;;5044666;28;20029;-78
2021/08/26 11:44:33;;;;;;;20.92;15.63;;;12.90;99.90;;;;;;5044279;27;20036;-78
2021/08/26 11:46:59;;;;;;;18.85;14.93;;;12.80;99.90;;;;;;5059971;28;20045;-78
2021/08/26 11:49:36;;;;;;;23.23;19.58;;;12.80;99.90;;;;;;5040776;28;20039;-78
2021/08/26 11:52:15;;;;;;;27.05;20.85;;;12.80;99.90;;;;;;5049527;27;20131;-78
2021/08/26 11:54:44;;;;;;;20.10;14.02;;;12.80;99.90;;;;;;5033594;28;20060;-78
2021/08/26 11:57:19;;;;;;;19.92;14.48;;;12.80;99.90;;;;;;5049666;28;20124;-78
2021/08/26 11:59:45;;;;;;;18.00;13.30;;;12.80;99.90;;;;;;5031362;28;20026;-78
2021/08/26 12:02:14;;;;;;;16.45;13.25;;;12.80;99.90;;;;;;5031998;28;20101;-78
2021/08/26 12:04:41;;;;;;;18.50;13.05;;;12.80;99.90;;;;;;5030538;28;20542;-78
2021/08/26 12:07:09;;;;;;;21.33;14.70;;;12.80;99.90;;;;;;5032165;28;20424;-79
2021/08/26 12:09:34;;;;;;;16.15;14.05;;;12.80;99.90;;;;;;5031196;28;20029;-78
2021/08/26 12:12:11;;;;;;;19.08;13.90;;;12.80;99.90;;;;;;5031614;28;20398;-78
2021/08/26 12:14:38;;;;;;;20.33;14.82;;;12.80;99.90;;;;;;5084991;27;20030;-78
2021/08/26 12:17:21;;;;;;;17.50;14.05;;;12.80;99.90;;;;;;5156618;27;20061;-78
2021/08/26 12:19:49;;;;;;;15.70;12.05;;;12.70;99.90;;;;;;5074699;27;20047;-78
2021/08/26 12:22:21;;;;;;;15.50;12.55;;;12.70;99.90;;;;;;5051678;27;20040;-78
2021/08/26 12:25:01;;;;;;;18.58;12.32;;;12.80;99.90;;;;;;5050827;28;20037;-78
2021/08/26 12:27:31;;;;;;;17.67;11.77;;;12.80;99.90;;;;;;5069327;28;20051;-78
2021/08/26 12:29:58;;;;;;;16.45;13.68;;;12.80;99.90;;;;;;5068640;28;20069;-76
2021/08/26 12:32:30;;;;;;;16.77;12.75;;;12.80;99.90;;;;;;5066623;28;20486;-77
2021/08/26 12:35:17;;;;;;;24.70;16.23;;;12.90;99.90;;;;;;5067269;28;20050;-78
2021/08/26 12:38:01;;;;;;;18.17;13.35;;;12.90;99.90;;;;;;5047120;28;20040;-77